sensor_id;sensor_type;location;lat;lon;timestamp;temperature;humidity
5476;DHT22;2760;50.000;9.194;2023-11-19T00:00:16;7.90;99.90
5476;DHT22;2760;50.000;9.194;2023-11-19T00:02:47;7.90;99.90
5476;DHT22;2760;50.000;9.194;2023-11-19T00:05:14;7.90;99.90
5476;DHT22;2760;50.000;9.194;2023-11-19T00:07:41;7.90;99.90
5476;DHT22;2760;50.000;9.194;2023-11-19T00:10:18;7.90;99.90
5476;DHT22;2760;50.000;9.194;2023-11-19T00:12:53;7.90;99.90
5476;DHT22;2760;50.000;9.194;2023-11-19T00:15:22;8.00;99.90
5476;DHT22;2760;50.000;9.194;2023-11-19T00:17:50;8.10;99.90
5476;DHT22;2760;50.000;9.194;2023-11-19T00:20:18;8.20;99.90
5476;DHT22;2760;50.000;9.194;2023-11-19T00:22:47;8.10;99.90
5476;DHT22;2760;50.000;9.194;2023-11-19T00:25:17;8.00;99.90
5476;DHT22;2760;50.000;9.194;2023-11-19T00:27:45;8.10;99.90
5476;DHT22;2760;50.000;9.194;2023-11-19T00:30:14;8.10;99.90
5476;DHT22;2760;50.000;9.194;2023-11-19T00:32:42;8.10;99.90
5476;DHT22;2760;50.000;9.194;2023-11-19T00:35:10;9.90;99.90
5476;DHT22;2760;50.000;9.194;2023-11-19T00:37:39;8.00;99.90
5476;DHT22;2760;50.000;9.194;2023-11-19T00:40:09;10.10;99.90
5476;DHT22;2760;50.000;9.194;2023-11-19T00:42:36;8.20;99.90
5476;DHT22;2760;50.000;9.194;2023-11-19T00:45:05;8.20;99.90
5476;DHT22;2760;50.000;9.194;2023-11-19T00:47:35;8.10;99.90
5476;DHT22;2760;50.000;9.194;2023-11-19T00:50:03;8.10;99.90
5476;DHT22;2760;50.000;9.194;2023-11-19T00:52:30;8.30;99.90
5476;DHT22;2760;50.000;9.194;2023-11-19T00:54:57;8.20;99.90
5476;DHT22;2760;50.000;9.194;2023-11-19T00:59:52;8.20;99.90
5476;DHT22;2760;50.000;9.194;2023-11-19T01:02:19;8.20;99.90
5476;DHT22;2760;50.000;9.194;2023-11-19T01:04:47;8.30;99.90
5476;DHT22;2760;50.000;9.194;2023-11-19T01:09:42;8.20;99.90
5476;DHT22;2760;50.000;9.194;2023-11-19T01:12:09;8.20;99.90
5476;DHT22;2760;50.000;9.194;2023-11-19T01:14:37;7.10;99.90
5476;DHT22;2760;50.000;9.194;2023-11-19T01:17:05;8.20;99.90
5476;DHT22;2760;50.000;9.194;2023-11-19T01:19:32;9.60;99.90
5476;DHT22;2760;50.000;9.194;2023-11-19T01:22:01;8.20;99.90
5476;DHT22;2760;50.000;9.194;2023-11-19T01:24:28;8.50;99.90
5476;DHT22;2760;50.000;9.194;2023-11-19T01:26:56;8.50;99.90
5476;DHT22;2760;50.000;9.194;2023-11-19T01:29:26;8.20;99.90
5476;DHT22;2760;50.000;9.194;2023-11-19T01:31:53;9.60;99.90
5476;DHT22;2760;50.000;9.194;2023-11-19T01:34:21;10.30;99.90
5476;DHT22;2760;50.000;9.194;2023-11-19T01:36:48;8.20;99.90
5476;DHT22;2760;50.000;9.194;2023-11-19T01:39:17;8.20;99.90
5476;DHT22;2760;50.000;9.194;2023-11-19T01:41:46;10.00;99.90
5476;DHT22;2760;50.000;9.194;2023-11-19T01:44:13;8.30;99.90
5476;DHT22;2760;50.000;9.194;2023-11-19T01:46:43;8.30;99.90
5476;DHT22;2760;50.000;9.194;2023-11-19T01:49:11;8.30;99.90
5476;DHT22;2760;50.000;9.194;2023-11-19T01:51:39;8.60;99.90
5476;DHT22;2760;50.000;9.194;2023-11-19T01:54:07;9.70;99.90
5476;DHT22;2760;50.000;9.194;2023-11-19T01:56:37;8.60;99.90
5476;DHT22;2760;50.000;9.194;2023-11-19T01:59:07;10.90;99.90
5476;DHT22;2760;50.000;9.194;2023-11-19T02:01:35;9.90;99.90
5476;DHT22;2760;50.000;9.194;2023-11-19T02:04:05;8.70;99.90
5476;DHT22;2760;50.000;9.194;2023-11-19T02:06:36;8.70;99.90
5476;DHT22;2760;50.000;9.194;2023-11-19T02:09:08;8.70;99.90
5476;DHT22;2760;50.000;9.194;2023-11-19T02:11:39;8.80;99.90
5476;DHT22;2760;50.000;9.194;2023-11-19T02:14:06;8.80;99.90
5476;DHT22;2760;50.000;9.194;2023-11-19T02:16:34;8.70;99.90
5476;DHT22;2760;50.000;9.194;2023-11-19T02:19:01;11.30;99.90
5476;DHT22;2760;50.000;9.194;2023-11-19T02:23:56;8.80;99.90
5476;DHT22;2760;50.000;9.194;2023-11-19T02:26:28;10.70;99.90
5476;DHT22;2760;50.000;9.194;2023-11-19T02:29:00;8.80;99.90
5476;DHT22;2760;50.000;9.194;2023-11-19T02:31:29;10.30;99.90
5476;DHT22;2760;50.000;9.194;2023-11-19T02:36:25;8.90;99.90
5476;DHT22;2760;50.000;9.194;2023-11-19T02:38:52;8.90;99.90
5476;DHT22;2760;50.000;9.194;2023-11-19T02:41:19;9.00;99.90
5476;DHT22;2760;50.000;9.194;2023-11-19T02:46:16;8.90;99.90
5476;DHT22;2760;50.000;9.194;2023-11-19T02:48:43;10.30;99.90
5476;DHT22;2760;50.000;9.194;2023-11-19T02:51:11;10.90;99.90
5476;DHT22;2760;50.000;9.194;2023-11-19T02:53:41;8.90;99.90
5476;DHT22;2760;50.000;9.194;2023-11-19T02:56:11;9.70;99.90
5476;DHT22;2760;50.000;9.194;2023-11-19T02:58:45;8.90;99.90
5476;DHT22;2760;50.000;9.194;2023-11-19T03:01:23;9.00;99.90
5476;DHT22;2760;50.000;9.194;2023-11-19T03:03:55;11.40;99.90
5476;DHT22;2760;50.000;9.194;2023-11-19T03:06:23;10.60;99.90
5476;DHT22;2760;50.000;9.194;2023-11-19T03:08:52;10.10;99.90
5476;DHT22;2760;50.000;9.194;2023-11-19T03:11:19;11.20;99.90
5476;DHT22;2760;50.000;9.194;2023-11-19T03:13:47;9.00;99.90
5476;DHT22;2760;50.000;9.194;2023-11-19T03:16:14;9.00;99.90
5476;DHT22;2760;50.000;9.194;2023-11-19T03:18:43;9.00;99.90
5476;DHT22;2760;50.000;9.194;2023-11-19T03:21:10;9.00;99.90
5476;DHT22;2760;50.000;9.194;2023-11-19T03:23:38;10.50;99.90
5476;DHT22;2760;50.000;9.194;2023-11-19T03:26:10;10.30;99.90
5476;DHT22;2760;50.000;9.194;2023-11-19T03:28:38;9.00;99.90
5476;DHT22;2760;50.000;9.194;2023-11-19T03:31:06;11.10;99.90
5476;DHT22;2760;50.000;9.194;2023-11-19T03:33:34;9.10;99.90
5476;DHT22;2760;50.000;9.194;2023-11-19T03:36:05;9.90;99.90
5476;DHT22;2760;50.000;9.194;2023-11-19T03:38:33;9.00;99.90
5476;DHT22;2760;50.000;9.194;2023-11-19T03:40:59;11.50;99.90
5476;DHT22;2760;50.000;9.194;2023-11-19T03:43:26;10.90;99.90
5476;DHT22;2760;50.000;9.194;2023-11-19T03:45:53;9.20;99.90
5476;DHT22;2760;50.000;9.194;2023-11-19T03:48:21;10.90;99.90
5476;DHT22;2760;50.000;9.194;2023-11-19T03:50:48;11.40;99.90
5476;DHT22;2760;50.000;9.194;2023-11-19T03:53:16;10.20;99.90
5476;DHT22;2760;50.000;9.194;2023-11-19T03:55:44;10.20;99.90
5476;DHT22;2760;50.000;9.194;2023-11-19T03:58:11;9.20;99.90
5476;DHT22;2760;50.000;9.194;2023-11-19T04:00:39;11.50;99.90
5476;DHT22;2760;50.000;9.194;2023-11-19T04:03:06;9.30;99.90
5476;DHT22;2760;50.000;9.194;2023-11-19T04:05:33;9.20;99.90
5476;DHT22;2760;50.000;9.194;2023-11-19T04:08:00;10.80;99.90
5476;DHT22;2760;50.000;9.194;2023-11-19T04:10:28;9.20;99.90
5476;DHT22;2760;50.000;9.194;2023-11-19T04:12:56;9.30;99.90
5476;DHT22;2760;50.000;9.194;2023-11-19T04:15:23;7.10;99.90
5476;DHT22;2760;50.000;9.194;2023-11-19T04:17:50;10.70;99.90
5476;DHT22;2760;50.000;9.194;2023-11-19T04:20:17;9.20;99.90
5476;DHT22;2760;50.000;9.194;2023-11-19T04:22:44;9.30;99.90
5476;DHT22;2760;50.000;9.194;2023-11-19T04:25:11;11.20;99.90
5476;DHT22;2760;50.000;9.194;2023-11-19T04:27:40;10.80;99.90
5476;DHT22;2760;50.000;9.194;2023-11-19T04:30:08;11.30;99.90
5476;DHT22;2760;50.000;9.194;2023-11-19T04:32:36;9.30;99.90
5476;DHT22;2760;50.000;9.194;2023-11-19T04:35:03;10.00;99.90
5476;DHT22;2760;50.000;9.194;2023-11-19T04:37:33;9.30;99.90
5476;DHT22;2760;50.000;9.194;2023-11-19T04:40:00;9.20;99.90
5476;DHT22;2760;50.000;9.194;2023-11-19T04:42:27;11.20;99.90
5476;DHT22;2760;50.000;9.194;2023-11-19T04:44:56;10.00;99.90
5476;DHT22;2760;50.000;9.194;2023-11-19T04:47:23;11.70;99.90
5476;DHT22;2760;50.000;9.194;2023-11-19T04:49:50;11.40;99.90
5476;DHT22;2760;50.000;9.194;2023-11-19T04:52:17;9.20;99.90
5476;DHT22;2760;50.000;9.194;2023-11-19T04:54:44;10.20;99.90
5476;DHT22;2760;50.000;9.194;2023-11-19T04:57:13;9.20;99.90
5476;DHT22;2760;50.000;9.194;2023-11-19T04:59:41;10.60;99.90
5476;DHT22;2760;50.000;9.194;2023-11-19T05:02:09;10.40;99.90
5476;DHT22;2760;50.000;9.194;2023-11-19T05:04:37;10.40;99.90
5476;DHT22;2760;50.000;9.194;2023-11-19T05:07:04;11.00;99.90
5476;DHT22;2760;50.000;9.194;2023-11-19T05:09:32;11.40;99.90
5476;DHT22;2760;50.000;9.194;2023-11-19T05:11:59;11.80;99.90
5476;DHT22;2760;50.000;9.194;2023-11-19T05:14:28;10.50;99.90
5476;DHT22;2760;50.000;9.194;2023-11-19T05:16:56;9.90;99.90
5476;DHT22;2760;50.000;9.194;2023-11-19T05:19:24;9.30;99.90
5476;DHT22;2760;50.000;9.194;2023-11-19T05:21:51;10.60;99.90
5476;DHT22;2760;50.000;9.194;2023-11-19T05:24:18;9.30;99.90
5476;DHT22;2760;50.000;9.194;2023-11-19T05:26:46;10.40;99.90
5476;DHT22;2760;50.000;9.194;2023-11-19T05:29:13;10.70;99.90
5476;DHT22;2760;50.000;9.194;2023-11-19T05:31:42;11.80;99.90
5476;DHT22;2760;50.000;9.194;2023-11-19T05:34:10;9.30;99.90
5476;DHT22;2760;50.000;9.194;2023-11-19T05:36:42;9.10;99.90
5476;DHT22;2760;50.000;9.194;2023-11-19T05:39:09;10.20;99.90
5476;DHT22;2760;50.000;9.194;2023-11-19T05:41:37;11.70;99.90
5476;DHT22;2760;50.000;9.194;2023-11-19T05:44:04;9.40;99.90
5476;DHT22;2760;50.000;9.194;2023-11-19T05:46:32;9.30;99.90
5476;DHT22;2760;50.000;9.194;2023-11-19T05:48:59;9.30;99.90
5476;DHT22;2760;50.000;9.194;2023-11-19T05:51:26;10.80;99.90
5476;DHT22;2760;50.000;9.194;2023-11-19T05:53:55;10.30;99.90
5476;DHT22;2760;50.000;9.194;2023-11-19T05:56:23;11.40;99.90
5476;DHT22;2760;50.000;9.194;2023-11-19T05:58:58;11.70;99.90
5476;DHT22;2760;50.000;9.194;2023-11-19T06:01:26;11.30;99.90
5476;DHT22;2760;50.000;9.194;2023-11-19T06:03:54;9.30;99.90
5476;DHT22;2760;50.000;9.194;2023-11-19T06:06:22;9.30;99.90
5476;DHT22;2760;50.000;9.194;2023-11-19T06:08:51;9.40;99.90
5476;DHT22;2760;50.000;9.194;2023-11-19T06:11:22;9.30;99.90
5476;DHT22;2760;50.000;9.194;2023-11-19T06:13:54;9.30;99.90
5476;DHT22;2760;50.000;9.194;2023-11-19T06:16:23;9.50;99.90
5476;DHT22;2760;50.000;9.194;2023-11-19T06:18:53;9.40;99.90
5476;DHT22;2760;50.000;9.194;2023-11-19T06:21:22;9.60;99.90
5476;DHT22;2760;50.000;9.194;2023-11-19T06:23:50;7.40;99.90
5476;DHT22;2760;50.000;9.194;2023-11-19T06:26:19;10.60;99.90
5476;DHT22;2760;50.000;9.194;2023-11-19T06:28:53;11.30;99.90
5476;DHT22;2760;50.000;9.194;2023-11-19T06:31:21;11.10;99.90
5476;DHT22;2760;50.000;9.194;2023-11-19T06:33:48;9.60;99.90
5476;DHT22;2760;50.000;9.194;2023-11-19T06:36:18;9.50;99.90
5476;DHT22;2760;50.000;9.194;2023-11-19T06:38:46;11.60;99.90
5476;DHT22;2760;50.000;9.194;2023-11-19T06:41:14;9.60;99.90
5476;DHT22;2760;50.000;9.194;2023-11-19T06:43:42;11.20;99.90
5476;DHT22;2760;50.000;9.194;2023-11-19T06:46:20;11.30;99.90
5476;DHT22;2760;50.000;9.194;2023-11-19T06:48:53;9.60;99.90
5476;DHT22;2760;50.000;9.194;2023-11-19T06:51:22;9.60;99.90
5476;DHT22;2760;50.000;9.194;2023-11-19T06:53:52;8.10;99.90
5476;DHT22;2760;50.000;9.194;2023-11-19T06:56:21;9.70;99.90
5476;DHT22;2760;50.000;9.194;2023-11-19T06:58:48;10.00;99.90
5476;DHT22;2760;50.000;9.194;2023-11-19T07:01:22;12.30;99.90
5476;DHT22;2760;50.000;9.194;2023-11-19T07:03:52;12.00;99.90
5476;DHT22;2760;50.000;9.194;2023-11-19T07:06:23;10.40;99.90
5476;DHT22;2760;50.000;9.194;2023-11-19T07:08:50;11.00;99.90
5476;DHT22;2760;50.000;9.194;2023-11-19T07:11:18;8.30;99.90
5476;DHT22;2760;50.000;9.194;2023-11-19T07:16:14;9.80;99.90
5476;DHT22;2760;50.000;9.194;2023-11-19T07:18:46;12.20;99.90
5476;DHT22;2760;50.000;9.194;2023-11-19T07:21:15;9.20;99.90
5476;DHT22;2760;50.000;9.194;2023-11-19T07:23:43;8.90;99.90
5476;DHT22;2760;50.000;9.194;2023-11-19T07:26:13;10.00;99.90
5476;DHT22;2760;50.000;9.194;2023-11-19T07:28:42;10.10;99.90
5476;DHT22;2760;50.000;9.194;2023-11-19T07:31:11;11.90;99.90
5476;DHT22;2760;50.000;9.194;2023-11-19T07:33:47;10.30;99.90
5476;DHT22;2760;50.000;9.194;2023-11-19T07:36:15;10.60;99.90
5476;DHT22;2760;50.000;9.194;2023-11-19T07:38:42;12.80;99.90
5476;DHT22;2760;50.000;9.194;2023-11-19T07:41:12;12.60;99.90
5476;DHT22;2760;50.000;9.194;2023-11-19T07:43:48;10.30;99.90
5476;DHT22;2760;50.000;9.194;2023-11-19T07:46:21;10.40;99.90
5476;DHT22;2760;50.000;9.194;2023-11-19T07:48:54;13.00;99.90
5476;DHT22;2760;50.000;9.194;2023-11-19T07:51:23;12.30;99.90
5476;DHT22;2760;50.000;9.194;2023-11-19T07:53:54;10.60;99.90
5476;DHT22;2760;50.000;9.194;2023-11-19T07:56:21;12.20;99.90
5476;DHT22;2760;50.000;9.194;2023-11-19T07:58:49;11.50;99.90
5476;DHT22;2760;50.000;9.194;2023-11-19T08:01:16;11.70;99.90
5476;DHT22;2760;50.000;9.194;2023-11-19T08:03:47;10.60;99.90
5476;DHT22;2760;50.000;9.194;2023-11-19T08:06:22;8.90;99.90
5476;DHT22;2760;50.000;9.194;2023-11-19T08:08:49;10.60;99.90
5476;DHT22;2760;50.000;9.194;2023-11-19T08:11:21;11.90;99.90
5476;DHT22;2760;50.000;9.194;2023-11-19T08:13:51;10.10;99.90
5476;DHT22;2760;50.000;9.194;2023-11-19T08:16:20;9.50;99.90
5476;DHT22;2760;50.000;9.194;2023-11-19T08:18:49;10.70;99.90
5476;DHT22;2760;50.000;9.194;2023-11-19T08:21:23;10.80;99.90
5476;DHT22;2760;50.000;9.194;2023-11-19T08:23:54;10.70;99.90
5476;DHT22;2760;50.000;9.194;2023-11-19T08:26:23;12.00;99.90
5476;DHT22;2760;50.000;9.194;2023-11-19T08:28:50;13.00;99.90
5476;DHT22;2760;50.000;9.194;2023-11-19T08:31:21;13.40;99.90
5476;DHT22;2760;50.000;9.194;2023-11-19T08:33:49;12.70;99.90
5476;DHT22;2760;50.000;9.194;2023-11-19T08:36:27;13.40;99.90
5476;DHT22;2760;50.000;9.194;2023-11-19T08:38:57;10.80;99.90
5476;DHT22;2760;50.000;9.194;2023-11-19T08:41:42;12.90;99.90
5476;DHT22;2760;50.000;9.194;2023-11-19T08:44:13;12.40;99.90
5476;DHT22;2760;50.000;9.194;2023-11-19T08:46:47;12.00;99.90
5476;DHT22;2760;50.000;9.194;2023-11-19T08:49:15;12.60;99.90
5476;DHT22;2760;50.000;9.194;2023-11-19T08:51:46;11.00;99.90
5476;DHT22;2760;50.000;9.194;2023-11-19T08:54:14;9.80;99.90
5476;DHT22;2760;50.000;9.194;2023-11-19T08:56:42;13.40;99.90
5476;DHT22;2760;50.000;9.194;2023-11-19T08:59:10;12.50;99.90
5476;DHT22;2760;50.000;9.194;2023-11-19T09:01:42;10.50;99.90
5476;DHT22;2760;50.000;9.194;2023-11-19T09:04:16;11.20;99.90
5476;DHT22;2760;50.000;9.194;2023-11-19T09:06:45;12.40;99.90
5476;DHT22;2760;50.000;9.194;2023-11-19T09:09:15;10.30;99.90
5476;DHT22;2760;50.000;9.194;2023-11-19T09:11:46;13.20;99.90
5476;DHT22;2760;50.000;9.194;2023-11-19T09:14:13;13.20;99.90
5476;DHT22;2760;50.000;9.194;2023-11-19T09:16:44;11.70;99.90
5476;DHT22;2760;50.000;9.194;2023-11-19T09:21:41;11.90;99.90
5476;DHT22;2760;50.000;9.194;2023-11-19T09:24:10;11.90;99.90
5476;DHT22;2760;50.000;9.194;2023-11-19T09:26:37;14.40;99.90
5476;DHT22;2760;50.000;9.194;2023-11-19T09:29:10;12.20;99.90
5476;DHT22;2760;50.000;9.194;2023-11-19T09:31:40;12.30;99.90
5476;DHT22;2760;50.000;9.194;2023-11-19T09:34:08;12.40;99.90
5476;DHT22;2760;50.000;9.194;2023-11-19T09:36:36;12.50;99.90
5476;DHT22;2760;50.000;9.194;2023-11-19T09:39:03;14.00;99.90
5476;DHT22;2760;50.000;9.194;2023-11-19T09:41:32;13.30;99.90
5476;DHT22;2760;50.000;9.194;2023-11-19T09:44:02;14.20;99.90
5476;DHT22;2760;50.000;9.194;2023-11-19T09:48:59;13.20;99.90
5476;DHT22;2760;50.000;9.194;2023-11-19T09:51:28;12.60;99.90
5476;DHT22;2760;50.000;9.194;2023-11-19T09:56:26;13.50;99.90
5476;DHT22;2760;50.000;9.194;2023-11-19T09:58:57;13.50;99.90
5476;DHT22;2760;50.000;9.194;2023-11-19T10:01:27;14.50;99.90
5476;DHT22;2760;50.000;9.194;2023-11-19T10:03:55;15.70;99.90
5476;DHT22;2760;50.000;9.194;2023-11-19T10:06:26;12.70;99.90
5476;DHT22;2760;50.000;9.194;2023-11-19T10:08:54;13.10;99.90
5476;DHT22;2760;50.000;9.194;2023-11-19T10:11:35;14.30;99.90
5476;DHT22;2760;50.000;9.194;2023-11-19T10:14:25;14.20;99.90
5476;DHT22;2760;50.000;9.194;2023-11-19T10:16:56;14.60;99.90
5476;DHT22;2760;50.000;9.194;2023-11-19T10:19:25;14.40;99.90
5476;DHT22;2760;50.000;9.194;2023-11-19T10:22:09;14.20;99.90
5476;DHT22;2760;50.000;9.194;2023-11-19T10:24:40;14.20;99.90
5476;DHT22;2760;50.000;9.194;2023-11-19T10:27:14;14.00;99.90
5476;DHT22;2760;50.000;9.194;2023-11-19T10:29:48;13.70;99.90
5476;DHT22;2760;50.000;9.194;2023-11-19T10:32:17;13.80;99.90
5476;DHT22;2760;50.000;9.194;2023-11-19T10:34:47;13.80;99.90
5476;DHT22;2760;50.000;9.194;2023-11-19T10:37:27;14.10;99.90
5476;DHT22;2760;50.000;9.194;2023-11-19T10:40:10;13.60;99.90
5476;DHT22;2760;50.000;9.194;2023-11-19T10:42:38;13.50;99.90
5476;DHT22;2760;50.000;9.194;2023-11-19T10:45:26;13.60;99.90
5476;DHT22;2760;50.000;9.194;2023-11-19T10:47:54;13.60;99.90
5476;DHT22;2760;50.000;9.194;2023-11-19T10:50:23;13.50;99.90
5476;DHT22;2760;50.000;9.194;2023-11-19T10:52:56;13.60;99.90
5476;DHT22;2760;50.000;9.194;2023-11-19T10:55:33;14.50;99.90
5476;DHT22;2760;50.000;9.194;2023-11-19T10:58:16;14.40;99.90
5476;DHT22;2760;50.000;9.194;2023-11-19T11:00:54;15.00;99.90
5476;DHT22;2760;50.000;9.194;2023-11-19T11:03:28;15.50;99.90
5476;DHT22;2760;50.000;9.194;2023-11-19T11:06:04;16.80;99.90
5476;DHT22;2760;50.000;9.194;2023-11-19T11:08:46;14.70;99.90
5476;DHT22;2760;50.000;9.194;2023-11-19T11:11:16;14.50;99.90
5476;DHT22;2760;50.000;9.194;2023-11-19T11:13:49;14.60;99.90
5476;DHT22;2760;50.000;9.194;2023-11-19T11:16:24;14.80;99.90
5476;DHT22;2760;50.000;9.194;2023-11-19T11:18:55;14.80;99.90
5476;DHT22;2760;50.000;9.194;2023-11-19T11:21:44;14.80;99.90
5476;DHT22;2760;50.000;9.194;2023-11-19T11:24:30;15.80;99.90
5476;DHT22;2760;50.000;9.194;2023-11-19T11:27:35;16.00;99.90
5476;DHT22;2760;50.000;9.194;2023-11-19T11:30:20;16.00;99.90
5476;DHT22;2760;50.000;9.194;2023-11-19T11:33:06;16.90;99.90
5476;DHT22;2760;50.000;9.194;2023-11-19T11:35:47;17.30;99.90
5476;DHT22;2760;50.000;9.194;2023-11-19T11:38:21;17.50;99.90
5476;DHT22;2760;50.000;9.194;2023-11-19T11:41:17;17.30;99.90
5476;DHT22;2760;50.000;9.194;2023-11-19T11:46:54;17.20;99.90
5476;DHT22;2760;50.000;9.194;2023-11-19T11:49:28;16.60;99.90
5476;DHT22;2760;50.000;9.194;2023-11-19T11:52:01;16.40;99.90
5476;DHT22;2760;50.000;9.194;2023-11-19T11:59:49;16.90;99.90
5476;DHT22;2760;50.000;9.194;2023-11-19T12:02:21;15.50;99.90
5476;DHT22;2760;50.000;9.194;2023-11-19T12:04:53;15.40;99.90
5476;DHT22;2760;50.000;9.194;2023-11-19T12:07:21;15.20;99.90
5476;DHT22;2760;50.000;9.194;2023-11-19T12:09:53;15.50;99.90
5476;DHT22;2760;50.000;9.194;2023-11-19T12:12:27;14.90;99.90
5476;DHT22;2760;50.000;9.194;2023-11-19T12:15:09;14.70;99.90
5476;DHT22;2760;50.000;9.194;2023-11-19T12:17:42;14.70;99.90
5476;DHT22;2760;50.000;9.194;2023-11-19T12:20:24;14.80;99.90
5476;DHT22;2760;50.000;9.194;2023-11-19T12:22:54;14.70;99.90
5476;DHT22;2760;50.000;9.194;2023-11-19T12:27:52;14.60;99.90
5476;DHT22;2760;50.000;9.194;2023-11-19T12:30:22;14.60;99.90
5476;DHT22;2760;50.000;9.194;2023-11-19T12:35:24;14.30;99.90
5476;DHT22;2760;50.000;9.194;2023-11-19T12:40:21;14.20;99.90
5476;DHT22;2760;50.000;9.194;2023-11-19T12:45:21;14.20;99.90
5476;DHT22;2760;50.000;9.194;2023-11-19T12:52:57;14.10;99.90
5476;DHT22;2760;50.000;9.194;2023-11-19T12:55:29;14.10;99.90
5476;DHT22;2760;50.000;9.194;2023-11-19T13:02:58;14.00;99.90
5476;DHT22;2760;50.000;9.194;2023-11-19T13:05:30;11.40;99.90
5476;DHT22;2760;50.000;9.194;2023-11-19T13:08:01;13.90;99.90
5476;DHT22;2760;50.000;9.194;2023-11-19T13:10:32;14.00;99.90
5476;DHT22;2760;50.000;9.194;2023-11-19T13:13:05;14.00;99.90
5476;DHT22;2760;50.000;9.194;2023-11-19T13:23:09;14.70;99.90
5476;DHT22;2760;50.000;9.194;2023-11-19T13:40:37;15.40;99.90
5476;DHT22;2760;50.000;9.194;2023-11-19T13:43:06;15.60;99.90
5476;DHT22;2760;50.000;9.194;2023-11-19T13:55:39;15.50;99.90
5476;DHT22;2760;50.000;9.194;2023-11-19T14:03:07;15.10;99.90
5476;DHT22;2760;50.000;9.194;2023-11-19T14:10:40;14.80;99.90
5476;DHT22;2760;50.000;9.194;2023-11-19T14:20:41;14.80;99.90
5476;DHT22;2760;50.000;9.194;2023-11-19T14:25:39;14.70;99.90
5476;DHT22;2760;50.000;9.194;2023-11-19T14:28:08;14.70;99.90
5476;DHT22;2760;50.000;9.194;2023-11-19T14:38:00;14.60;99.90
5476;DHT22;2760;50.000;9.194;2023-11-19T14:40:30;14.60;99.90
5476;DHT22;2760;50.000;9.194;2023-11-19T14:43:00;14.50;99.90
5476;DHT22;2760;50.000;9.194;2023-11-19T14:57:52;14.00;99.90
5476;DHT22;2760;50.000;9.194;2023-11-19T15:00:26;14.00;99.90
5476;DHT22;2760;50.000;9.194;2023-11-19T15:10:19;13.90;99.90
5476;DHT22;2760;50.000;9.194;2023-11-19T15:15:30;13.80;99.90
5476;DHT22;2760;50.000;9.194;2023-11-19T15:25:23;13.60;99.90
5476;DHT22;2760;50.000;9.194;2023-11-19T15:27:50;13.50;99.90
5476;DHT22;2760;50.000;9.194;2023-11-19T15:30:18;13.50;99.90
5476;DHT22;2760;50.000;9.194;2023-11-19T15:33:00;13.50;99.90
5476;DHT22;2760;50.000;9.194;2023-11-19T15:45:26;13.30;99.90
5476;DHT22;2760;50.000;9.194;2023-11-19T15:48:00;13.30;99.90
5476;DHT22;2760;50.000;9.194;2023-11-19T16:05:23;13.00;99.90
5476;DHT22;2760;50.000;9.194;2023-11-19T16:15:15;12.80;99.90
5476;DHT22;2760;50.000;9.194;2023-11-19T16:22:44;12.60;99.90
5476;DHT22;2760;50.000;9.194;2023-11-19T16:30:08;12.50;99.90
5476;DHT22;2760;50.000;9.194;2023-11-19T16:32:48;12.50;99.90
5476;DHT22;2760;50.000;9.194;2023-11-19T16:35:19;12.40;99.90
5476;DHT22;2760;50.000;9.194;2023-11-19T16:37:47;12.40;99.90
5476;DHT22;2760;50.000;9.194;2023-11-19T16:42:43;12.30;99.90
5476;DHT22;2760;50.000;9.194;2023-11-19T16:55:06;12.10;99.90
5476;DHT22;2760;50.000;9.194;2023-11-19T16:57:41;12.10;99.90
5476;DHT22;2760;50.000;9.194;2023-11-19T17:00:11;12.00;99.90
5476;DHT22;2760;50.000;9.194;2023-11-19T17:10:09;11.90;99.90
5476;DHT22;2760;50.000;9.194;2023-11-19T17:12:39;11.80;99.90
5476;DHT22;2760;50.000;9.194;2023-11-19T17:15:06;12.40;99.90
5476;DHT22;2760;50.000;9.194;2023-11-19T17:17:38;11.70;99.90
5476;DHT22;2760;50.000;9.194;2023-11-19T17:20:06;11.60;99.90
5476;DHT22;2760;50.000;9.194;2023-11-19T17:22:38;11.70;99.90
5476;DHT22;2760;50.000;9.194;2023-11-19T17:25:08;9.00;99.90
5476;DHT22;2760;50.000;9.194;2023-11-19T17:27:39;11.70;99.90
5476;DHT22;2760;50.000;9.194;2023-11-19T17:30:08;11.70;99.90
5476;DHT22;2760;50.000;9.194;2023-11-19T17:32:37;11.60;99.90
5476;DHT22;2760;50.000;9.194;2023-11-19T17:35:05;11.60;99.90
5476;DHT22;2760;50.000;9.194;2023-11-19T17:42:29;11.90;99.90
5476;DHT22;2760;50.000;9.194;2023-11-19T17:47:28;11.90;99.90
5476;DHT22;2760;50.000;9.194;2023-11-19T17:49:55;12.00;99.90
5476;DHT22;2760;50.000;9.194;2023-11-19T17:52:24;12.00;99.90
5476;DHT22;2760;50.000;9.194;2023-11-19T17:54:51;12.00;99.90
5476;DHT22;2760;50.000;9.194;2023-11-19T17:57:20;12.00;99.90
5476;DHT22;2760;50.000;9.194;2023-11-19T17:59:52;12.20;99.90
5476;DHT22;2760;50.000;9.194;2023-11-19T18:02:24;12.10;99.90
5476;DHT22;2760;50.000;9.194;2023-11-19T18:09:54;12.10;99.90
5476;DHT22;2760;50.000;9.194;2023-11-19T18:17:18;12.10;99.90
5476;DHT22;2760;50.000;9.194;2023-11-19T18:27:30;12.20;99.90
5476;DHT22;2760;50.000;9.194;2023-11-19T18:30:27;12.10;99.90
5476;DHT22;2760;50.000;9.194;2023-11-19T18:32:57;12.20;99.90
5476;DHT22;2760;50.000;9.194;2023-11-19T18:35:33;12.20;99.90
5476;DHT22;2760;50.000;9.194;2023-11-19T18:40:54;12.00;99.90
5476;DHT22;2760;50.000;9.194;2023-11-19T18:43:31;11.90;99.90
5476;DHT22;2760;50.000;9.194;2023-11-19T18:48:40;11.90;99.90
5476;DHT22;2760;50.000;9.194;2023-11-19T18:53:45;11.80;99.90
5476;DHT22;2760;50.000;9.194;2023-11-19T19:01:30;11.60;99.90
5476;DHT22;2760;50.000;9.194;2023-11-19T19:04:03;10.50;99.90
5476;DHT22;2760;50.000;9.194;2023-11-19T19:06:36;11.50;99.90
5476;DHT22;2760;50.000;9.194;2023-11-19T19:09:23;11.40;99.90
5476;DHT22;2760;50.000;9.194;2023-11-19T19:14:54;11.30;99.90
5476;DHT22;2760;50.000;9.194;2023-11-19T19:17:52;11.30;99.90
5476;DHT22;2760;50.000;9.194;2023-11-19T19:20:33;11.10;99.90
5476;DHT22;2760;50.000;9.194;2023-11-19T19:33:08;11.20;99.90
5476;DHT22;2760;50.000;9.194;2023-11-19T19:35:38;10.10;99.90
5476;DHT22;2760;50.000;9.194;2023-11-19T19:38:39;11.20;99.90
5476;DHT22;2760;50.000;9.194;2023-11-19T19:50:19;11.20;99.90
5476;DHT22;2760;50.000;9.194;2023-11-19T20:04:48;11.30;99.90
5476;DHT22;2760;50.000;9.194;2023-11-19T20:08:04;11.40;99.90
5476;DHT22;2760;50.000;9.194;2023-11-19T20:11:07;11.40;99.90
5476;DHT22;2760;50.000;9.194;2023-11-19T20:14:02;11.40;99.90
5476;DHT22;2760;50.000;9.194;2023-11-19T20:17:16;10.50;99.90
5476;DHT22;2760;50.000;9.194;2023-11-19T20:20:02;11.40;99.90
5476;DHT22;2760;50.000;9.194;2023-11-19T20:22:36;11.50;99.90
5476;DHT22;2760;50.000;9.194;2023-11-19T20:25:28;11.60;99.90
5476;DHT22;2760;50.000;9.194;2023-11-19T20:28:16;11.60;99.90
5476;DHT22;2760;50.000;9.194;2023-11-19T20:30:51;11.90;99.90
5476;DHT22;2760;50.000;9.194;2023-11-19T20:33:39;11.80;99.90
5476;DHT22;2760;50.000;9.194;2023-11-19T20:36:23;11.90;99.90
5476;DHT22;2760;50.000;9.194;2023-11-19T20:41:59;11.90;99.90
5476;DHT22;2760;50.000;9.194;2023-11-19T20:44:48;11.90;99.90
5476;DHT22;2760;50.000;9.194;2023-11-19T20:47:35;12.00;99.90
5476;DHT22;2760;50.000;9.194;2023-11-19T20:53:02;12.00;99.90
5476;DHT22;2760;50.000;9.194;2023-11-19T20:55:44;11.90;99.90
5476;DHT22;2760;50.000;9.194;2023-11-19T20:58:59;14.40;99.90
5476;DHT22;2760;50.000;9.194;2023-11-19T21:01:49;12.00;99.90
5476;DHT22;2760;50.000;9.194;2023-11-19T21:04:27;11.90;99.90
5476;DHT22;2760;50.000;9.194;2023-11-19T21:07:13;12.10;99.90
5476;DHT22;2760;50.000;9.194;2023-11-19T21:09:55;12.10;99.90
5476;DHT22;2760;50.000;9.194;2023-11-19T21:16:16;12.10;99.90
5476;DHT22;2760;50.000;9.194;2023-11-19T21:19:08;12.10;99.90